Disclaimer

Please do not use the information listed here in-flight or in-navigation, as they are not provided to us by the airports but are provided by volunteers, so they might be outdated.

Search


Regions


Airport information page

Radio informations:
Tower (TWR) - 118.6 MHz
FIS - 118.5 MHz
Approach (APP) - 121.1 MHz

Airport informations:
Latitude: 53° 25' 16.80" N
Longitude: 006° 16' 12.27" W
Elevation: 242 feet - 74 meters
Operating hours: 24 hour operations
Operating agency: Civil government, landing fees and diplomatic clearance may be required
Timezone: UTC 0(+1DT) - Last Sunday in March to last Sunday in October
Fuel: Jet A1, without icing nhibitor.

100/130 MIL Spec, low lead, aviation gasoline (BLUE)

Runway information:
10/28 - 8652 x 148 feet< - >2637 x 45 meters
11/29 - 4393 x 200 feet< - >1339 x 61 meters
16/34 - 6798 x 200 feet< - >2072 x 61 meters

Recent METARs:
EIDW 151800Z 17005KT 8000 -RA FEW005 BKN020 09/07 Q0981 BECMG 27027G45 TEMPO RA
EIDW 151830Z 24007KT 200V270 8000 -RA SCT010 BKN020 09/07 Q0981 BECMG 27027G45KT
EIDW 151900Z 28036G53KT 8000 -RA SCT010 BKN020 06/04 Q0983 TEMPO 4000 RA

Airport on the map: